No particular awareness of the weather is required.    There are no Weather-warnings


Meteo18 Weather Cam more information Meteo18 Weather Cam


Thunder radar more information blitzortung!


Rain radar more information rain snow radar


Visit our other weather sites:

Template documentation
and downloads

And another site



Weather Underground History page Text

Daily Summary for October 1, 2017 Units:  Both    English   Metric
« Previous Day
Next Day »
Daily Weekly Monthly Yearly Custom
  High: Low: Average:
Temperature: TemperatureC °F /  -17.8 °C 8.6 °F /  -13 °C 12 °F /  -11.1 °C
Dew Point: DewpointC °F /  -17.8 °C 7.8 °F /  -13.4 °C 10.8 °F /  -11.8 °C
Humidity: Humidity % 75 % 92 %
Wind Speed: WindSpeedKMH mph /  0 km/h - 4.5 mph /  7.2 km/h
Wind Gust: WindSpeedGustKMH mph /  0 km/h - -
Wind:- - SSW
Pressure: PressurehPa in /  0 hPa 1020.9 in /  34567.7 hPa -
Precipitation: 0.5 in /  12.7 mm    
Historical Graphs
 
 
Tabular Data for October 1, 2017
Time Temperature Dew Point Pressure Wind Wind Speed Wind Gust Humidity Rainfall Rate (Hourly)
TemperatureC °F /  -17.8 °C DewpointC °F /  -17.8 °C PressurehPa in /  0 hPa Calm     Humidity % HourlyPrecipMM in /  0 mm
00:02 9.3 °F /  -12.6 °C 8.4 °F /  -13.1 °C 1022.2 in /  34611.7 hPa Calm   1.6 mph /  2.6 km/h 94 % 0.0 in /  0 mm
00:12 9.3 °F /  -12.6 °C 8.5 °F /  -13.1 °C 1022.2 in /  34611.7 hPa Calm   1.6 mph /  2.6 km/h 95 % 0.0 in /  0 mm
00:17 9.5 °F /  -12.5 °C 8.7 °F /  -12.9 °C 1022.2 in /  34611.7 hPa Calm     95 % 0.0 in /  0 mm
00:22 9.4 °F /  -12.6 °C 8.5 °F /  -13.1 °C 1021.9 in /  34601.5 hPa Calm     94 % 0.0 in /  0 mm
00:27 9.3 °F /  -12.6 °C 8.4 °F /  -13.1 °C 1021.9 in /  34601.5 hPa Calm     94 % 0.0 in /  0 mm
00:32 9.3 °F /  -12.6 °C 8.5 °F /  -13.1 °C 1021.9 in /  34601.5 hPa Calm     95 % 0.0 in /  0 mm
00:42 9.1 °F /  -12.7 °C 8.3 °F /  -13.2 °C 1021.9 in /  34601.5 hPa Calm     95 % 0.0 in /  0 mm
00:52 9.1 °F /  -12.7 °C 8.3 °F /  -13.2 °C 1021.9 in /  34601.5 hPa Calm     95 % 0.0 in /  0 mm
01:02 8.8 °F /  -12.9 °C 8.0 °F /  -13.3 °C 1021.9 in /  34601.5 hPa Calm     95 % 0.0 in /  0 mm
01:12 8.7 °F /  -12.9 °C 7.9 °F /  -13.4 °C 1021.9 in /  34601.5 hPa Calm     95 % 0.0 in /  0 mm
01:17 8.7 °F /  -12.9 °C 7.9 °F /  -13.4 °C 1021.9 in /  34601.5 hPa Calm     95 % 0.0 in /  0 mm
01:22 8.7 °F /  -12.9 °C 7.9 °F /  -13.4 °C 1022.2 in /  34611.7 hPa Calm     95 % 0.0 in /  0 mm
01:32 8.8 °F /  -12.9 °C 8.2 °F /  -13.2 °C 1022.2 in /  34611.7 hPa Calm     96 % 0.0 in /  0 mm
01:42 8.9 °F /  -12.8 °C 8.3 °F /  -13.2 °C 1021.9 in /  34601.5 hPa Calm     96 % 0.0 in /  0 mm
01:52 8.7 °F /  -12.9 °C 7.9 °F /  -13.4 °C 1022.2 in /  34611.7 hPa Calm     95 % 0.0 in /  0 mm
01:57 8.6 °F /  -13 °C 7.8 °F /  -13.4 °C 1022.2 in /  34611.7 hPa Calm     95 % 0.0 in /  0 mm
02:02 8.8 °F /  -12.9 °C 8.2 °F /  -13.2 °C 1022.2 in /  34611.7 hPa Calm     96 % 0.0 in /  0 mm
02:07 8.8 °F /  -12.9 °C 8.2 °F /  -13.2 °C 1022.2 in /  34611.7 hPa Calm     96 % 0.0 in /  0 mm
02:12 8.8 °F /  -12.9 °C 8.2 °F /  -13.2 °C 1022.2 in /  34611.7 hPa Calm     96 % 0.0 in /  0 mm
02:17 8.7 °F /  -12.9 °C 7.9 °F /  -13.4 °C 1022.2 in /  34611.7 hPa Calm     95 % 0.0 in /  0 mm
02:22 8.7 °F /  -12.9 °C 8.1 °F /  -13.3 °C 1022.6 in /  34625.2 hPa Calm     96 % 0.0 in /  0 mm
02:32 8.7 °F /  -12.9 °C 8.1 °F /  -13.3 °C 1022.2 in /  34611.7 hPa Calm     96 % 0.0 in /  0 mm
02:42 8.8 °F /  -12.9 °C 8.2 °F /  -13.2 °C 1022.2 in /  34611.7 hPa Calm     96 % 0.0 in /  0 mm
02:52 8.8 °F /  -12.9 °C 8.2 °F /  -13.2 °C 1022.2 in /  34611.7 hPa Calm     96 % 0.0 in /  0 mm
02:57 8.8 °F /  -12.9 °C 8.2 °F /  -13.2 °C 1022.2 in /  34611.7 hPa Calm     96 % 0.0 in /  0 mm
03:02 8.8 °F /  -12.9 °C 8.2 °F /  -13.2 °C 1022.2 in /  34611.7 hPa Calm     96 % 0.0 in /  0 mm
03:12 8.7 °F /  -12.9 °C 8.1 °F /  -13.3 °C 1022.2 in /  34611.7 hPa Calm     96 % 0.0 in /  0 mm
03:17 8.8 °F /  -12.9 °C 8.2 °F /  -13.2 °C 1022.2 in /  34611.7 hPa Calm     96 % 0.0 in /  0 mm
03:22 8.8 °F /  -12.9 °C 8.2 °F /  -13.2 °C 1022.2 in /  34611.7 hPa Calm     96 % 0.0 in /  0 mm
03:27 8.9 °F /  -12.8 °C 8.3 °F /  -13.2 °C 1022.2 in /  34611.7 hPa Calm     96 % 0.0 in /  0 mm
03:32 8.9 °F /  -12.8 °C 8.3 °F /  -13.2 °C 1022.2 in /  34611.7 hPa Calm     96 % 0.0 in /  0 mm
03:42 8.9 °F /  -12.8 °C 8.3 °F /  -13.2 °C 1022.2 in /  34611.7 hPa Calm     96 % 0.0 in /  0 mm
03:47 8.9 °F /  -12.8 °C 8.3 °F /  -13.2 °C 1021.9 in /  34601.5 hPa Calm     96 % 0.0 in /  0 mm
03:52 8.9 °F /  -12.8 °C 8.3 °F /  -13.2 °C 1022.2 in /  34611.7 hPa Calm     96 % 0.0 in /  0 mm
04:02 8.9 °F /  -12.8 °C 8.3 °F /  -13.2 °C 1022.2 in /  34611.7 hPa Calm     96 % 0.0 in /  0 mm
04:12 9.1 °F /  -12.7 °C 8.5 °F /  -13.1 °C 1021.9 in /  34601.5 hPa Calm     96 % 0.0 in /  0 mm
04:17 9.1 °F /  -12.7 °C 8.5 °F /  -13.1 °C 1022.2 in /  34611.7 hPa Calm     96 % 0.0 in /  0 mm
04:22 9.0 °F /  -12.8 °C 8.4 °F /  -13.1 °C 1021.9 in /  34601.5 hPa Calm     96 % 0.0 in /  0 mm
04:27 9.1 °F /  -12.7 °C 8.5 °F /  -13.1 °C 1022.2 in /  34611.7 hPa Calm     96 % 0.0 in /  0 mm
04:32 9.1 °F /  -12.7 °C 8.5 °F /  -13.1 °C 1022.2 in /  34611.7 hPa Calm     96 % 0.0 in /  0 mm
04:37 9.1 °F /  -12.7 °C 8.5 °F /  -13.1 °C 1022.2 in /  34611.7 hPa Calm     96 % 0.0 in /  0 mm
04:47 9.1 °F /  -12.7 °C 8.5 °F /  -13.1 °C 1022.2 in /  34611.7 hPa Calm     96 % 0.0 in /  0 mm
04:52 9.0 °F /  -12.8 °C 8.4 °F /  -13.1 °C 1022.2 in /  34611.7 hPa Calm     96 % 0.0 in /  0 mm
04:57 9.1 °F /  -12.7 °C 8.5 °F /  -13.1 °C 1022.6 in /  34625.2 hPa Calm     96 % 0.0 in /  0 mm
05:02 9.1 °F /  -12.7 °C 8.5 °F /  -13.1 °C 1022.2 in /  34611.7 hPa Calm     96 % 0.0 in /  0 mm
05:07 9.1 °F /  -12.7 °C 8.5 °F /  -13.1 °C 1022.2 in /  34611.7 hPa Calm     96 % 0.0 in /  0 mm
05:12 9.1 °F /  -12.7 °C 8.5 °F /  -13.1 °C 1022.2 in /  34611.7 hPa Calm     96 % 0.0 in /  0 mm
05:17 9.1 °F /  -12.7 °C 8.5 °F /  -13.1 °C 1022.2 in /  34611.7 hPa Calm     96 % 0.0 in /  0 mm
05:22 9.1 °F /  -12.7 °C 8.5 °F /  -13.1 °C 1022.2 in /  34611.7 hPa Calm     96 % 0.0 in /  0 mm
05:27 9.1 °F /  -12.7 °C 8.5 °F /  -13.1 °C 1022.2 in /  34611.7 hPa Calm     96 % 0.0 in /  0 mm
05:32 8.9 °F /  -12.8 °C 8.3 °F /  -13.2 °C 1022.2 in /  34611.7 hPa Calm     96 % 0.0 in /  0 mm
05:37 8.9 °F /  -12.8 °C 8.3 °F /  -13.2 °C 1022.2 in /  34611.7 hPa Calm     96 % 0.0 in /  0 mm
05:42 8.9 °F /  -12.8 °C 8.3 °F /  -13.2 °C 1022.2 in /  34611.7 hPa Calm     96 % 0.0 in /  0 mm
05:47 8.9 °F /  -12.8 °C 8.3 °F /  -13.2 °C 1022.2 in /  34611.7 hPa Calm     96 % 0.0 in /  0 mm
05:52 8.9 °F /  -12.8 °C 8.3 °F /  -13.2 °C 1022.6 in /  34625.2 hPa Calm     96 % 0.0 in /  0 mm
05:57 9.1 °F /  -12.7 °C 8.5 °F /  -13.1 °C 1022.2 in /  34611.7 hPa Calm     96 % 0.0 in /  0 mm
06:02 9.1 °F /  -12.7 °C 8.5 °F /  -13.1 °C 1022.2 in /  34611.7 hPa Calm     96 % 0.0 in /  0 mm
06:12 9.1 °F /  -12.7 °C 8.5 °F /  -13.1 °C 1022.2 in /  34611.7 hPa Calm     96 % 0.0 in /  0 mm
06:17 9.0 °F /  -12.8 °C 8.4 °F /  -13.1 °C 1022.2 in /  34611.7 hPa Calm     96 % 0.0 in /  0 mm
06:22 9.0 °F /  -12.8 °C 8.4 °F /  -13.1 °C 1022.2 in /  34611.7 hPa Calm     96 % 0.0 in /  0 mm
06:27 9.0 °F /  -12.8 °C 8.4 °F /  -13.1 °C 1022.2 in /  34611.7 hPa Calm     96 % 0.0 in /  0 mm
06:32 9.0 °F /  -12.8 °C 8.4 °F /  -13.1 °C 1022.2 in /  34611.7 hPa Calm     96 % 0.0 in /  0 mm
06:37 9.0 °F /  -12.8 °C 8.4 °F /  -13.1 °C 1022.2 in /  34611.7 hPa Calm     96 % 0.0 in /  0 mm
06:42 9.0 °F /  -12.8 °C 8.4 °F /  -13.1 °C 1022.2 in /  34611.7 hPa Calm     96 % 0.0 in /  0 mm
06:47 9.0 °F /  -12.8 °C 8.4 °F /  -13.1 °C 1022.2 in /  34611.7 hPa Calm     96 % 0.0 in /  0 mm
06:57 9.0 °F /  -12.8 °C 8.4 °F /  -13.1 °C 1022.2 in /  34611.7 hPa Calm     96 % 0.0 in /  0 mm
07:02 9.0 °F /  -12.8 °C 8.5 °F /  -13.1 °C 1022.2 in /  34611.7 hPa Calm     97 % 0.0 in /  0 mm
07:07 8.9 °F /  -12.8 °C 8.3 °F /  -13.2 °C 1021.9 in /  34601.5 hPa Calm     96 % 0.0 in /  0 mm
07:12 9.0 °F /  -12.8 °C 8.5 °F /  -13.1 °C 1022.2 in /  34611.7 hPa Calm     97 % 0.0 in /  0 mm
07:17 8.9 °F /  -12.8 °C 8.4 °F /  -13.1 °C 1022.2 in /  34611.7 hPa Calm     97 % 0.0 in /  0 mm
07:22 8.9 °F /  -12.8 °C 8.4 °F /  -13.1 °C 1022.2 in /  34611.7 hPa Calm     97 % 0.3 in /  7.62 mm
07:27 8.9 °F /  -12.8 °C 8.4 °F /  -13.1 °C 1022.2 in /  34611.7 hPa Calm     97 % 0.3 in /  7.62 mm
07:32 8.9 °F /  -12.8 °C 8.4 °F /  -13.1 °C 1022.2 in /  34611.7 hPa Calm     97 % 0.3 in /  7.62 mm
07:37 8.9 °F /  -12.8 °C 8.4 °F /  -13.1 °C 1022.2 in /  34611.7 hPa Calm     97 % 0.3 in /  7.62 mm
07:42 8.9 °F /  -12.8 °C 8.4 °F /  -13.1 °C 1022.2 in /  34611.7 hPa Calm     97 % 0.3 in /  7.62 mm
07:47 8.9 °F /  -12.8 °C 8.4 °F /  -13.1 °C 1022.2 in /  34611.7 hPa Calm     97 % 0.3 in /  7.62 mm
07:57 9.0 °F /  -12.8 °C 8.5 °F /  -13.1 °C 1022.2 in /  34611.7 hPa Calm     97 % 0.3 in /  7.62 mm
08:02 9.1 °F /  -12.7 °C 8.6 °F /  -13 °C 1022.2 in /  34611.7 hPa Calm     97 % 0.3 in /  7.62 mm
08:07 9.1 °F /  -12.7 °C 8.6 °F /  -13 °C 1022.2 in /  34611.7 hPa Calm   3.2 mph /  5.1 km/h 97 % 0.3 in /  7.62 mm
08:12 9.1 °F /  -12.7 °C 8.6 °F /  -13 °C 1022.2 in /  34611.7 hPa Calm   3.2 mph /  5.1 km/h 97 % 0.3 in /  7.62 mm
08:17 9.2 °F /  -12.7 °C 8.7 °F /  -12.9 °C 1022.2 in /  34611.7 hPa Calm   3.2 mph /  5.1 km/h 97 % 0.3 in /  7.62 mm
08:22 9.2 °F /  -12.7 °C 8.7 °F /  -12.9 °C 1022.2 in /  34611.7 hPa Calm     97 % 0.0 in /  0 mm
08:32 9.3 °F /  -12.6 °C 8.8 °F /  -12.9 °C 1022.2 in /  34611.7 hPa Calm     97 % 0.0 in /  0 mm
08:37 9.4 °F /  -12.6 °C 8.9 °F /  -12.8 °C 1022.2 in /  34611.7 hPa Calm     97 % 0.0 in /  0 mm
08:42 9.4 °F /  -12.6 °C 8.9 °F /  -12.8 °C 1022.2 in /  34611.7 hPa Calm   1.6 mph /  2.6 km/h 97 % 0.0 in /  0 mm
08:47 9.6 °F /  -12.4 °C 9.1 °F /  -12.7 °C 1022.2 in /  34611.7 hPa Calm   1.6 mph /  2.6 km/h 97 % 0.0 in /  0 mm
08:52 9.7 °F /  -12.4 °C 9.2 °F /  -12.7 °C 1022.2 in /  34611.7 hPa Calm   1.6 mph /  2.6 km/h 97 % 0.0 in /  0 mm
08:57 9.7 °F /  -12.4 °C 9.2 °F /  -12.7 °C 1022.2 in /  34611.7 hPa Calm     97 % 0.0 in /  0 mm
09:02 9.8 °F /  -12.3 °C 9.3 °F /  -12.6 °C 1022.2 in /  34611.7 hPa Calm     97 % 0.0 in /  0 mm
09:12 9.9 °F /  -12.3 °C 9.4 °F /  -12.6 °C 1022.2 in /  34611.7 hPa Calm   1.6 mph /  2.6 km/h 97 % 0.0 in /  0 mm
09:17 9.9 °F /  -12.3 °C 9.4 °F /  -12.6 °C 1022.2 in /  34611.7 hPa Calm   1.6 mph /  2.6 km/h 97 % 0.0 in /  0 mm
09:22 10.0 °F /  -12.2 °C 9.5 °F /  -12.5 °C 1022.2 in /  34611.7 hPa Calm   1.6 mph /  2.6 km/h 97 % 0.0 in /  0 mm
09:27 10.1 °F /  -12.2 °C 9.6 °F /  -12.4 °C 1021.9 in /  34601.5 hPa Calm   1.6 mph /  2.6 km/h 97 % 0.0 in /  0 mm
09:32 10.2 °F /  -12.1 °C 9.7 °F /  -12.4 °C 1022.2 in /  34611.7 hPa Calm   1.6 mph /  2.6 km/h 97 % 0.0 in /  0 mm
09:37 10.3 °F /  -12.1 °C 9.8 °F /  -12.3 °C 1022.2 in /  34611.7 hPa Calm   1.6 mph /  2.6 km/h 97 % 0.0 in /  0 mm
09:42 10.4 °F /  -12 °C 9.9 °F /  -12.3 °C 1022.2 in /  34611.7 hPa South 4.8 mph /  7.7 km/h 4.8 mph /  7.7 km/h 97 % 0.0 in /  0 mm
09:47 10.6 °F /  -11.9 °C 10.1 °F /  -12.2 °C 1022.2 in /  34611.7 hPa Calm   4.8 mph /  7.7 km/h 97 % 0.0 in /  0 mm
09:52 10.7 °F /  -11.8 °C 10.2 °F /  -12.1 °C 1022.2 in /  34611.7 hPa Calm   4.8 mph /  7.7 km/h 97 % 0.0 in /  0 mm
09:57 10.9 °F /  -11.7 °C 10.4 °F /  -12 °C 1022.2 in /  34611.7 hPa Calm   4.8 mph /  7.7 km/h 97 % 0.0 in /  0 mm
10:02 11.0 °F /  -11.7 °C 10.5 °F /  -11.9 °C 1022.2 in /  34611.7 hPa Calm   4.8 mph /  7.7 km/h 97 % 0.0 in /  0 mm
10:12 11.3 °F /  -11.5 °C 10.8 °F /  -11.8 °C 1021.9 in /  34601.5 hPa Calm   4.8 mph /  7.7 km/h 97 % 0.0 in /  0 mm
10:17 11.4 °F /  -11.4 °C 10.9 °F /  -11.7 °C 1021.9 in /  34601.5 hPa SSW 3.2 mph /  5.1 km/h 6.4 mph /  10.3 km/h 97 % 0.0 in /  0 mm
10:22 11.6 °F /  -11.3 °C 11.0 °F /  -11.7 °C 1022.2 in /  34611.7 hPa SSW 1.6 mph /  2.6 km/h 6.4 mph /  10.3 km/h 96 % 0.0 in /  0 mm
10:32 11.8 °F /  -11.2 °C 11.2 °F /  -11.6 °C 1022.2 in /  34611.7 hPa SSW 1.6 mph /  2.6 km/h 6.4 mph /  10.3 km/h 96 % 0.0 in /  0 mm
10:37 11.9 °F /  -11.2 °C 11.3 °F /  -11.5 °C 1022.2 in /  34611.7 hPa South 3.2 mph /  5.1 km/h 4.8 mph /  7.7 km/h 96 % 0.0 in /  0 mm
10:42 12.0 °F /  -11.1 °C 11.2 °F /  -11.6 °C 1022.2 in /  34611.7 hPa Calm   4.8 mph /  7.7 km/h 95 % 0.0 in /  0 mm
10:47 12.1 °F /  -11.1 °C 11.3 °F /  -11.5 °C 1022.2 in /  34611.7 hPa Calm   4.8 mph /  7.7 km/h 95 % 0.0 in /  0 mm
10:52 12.3 °F /  -10.9 °C 11.5 °F /  -11.4 °C 1022.2 in /  34611.7 hPa Calm   4.8 mph /  7.7 km/h 95 % 0.0 in /  0 mm
11:02 12.5 °F /  -10.8 °C 11.6 °F /  -11.3 °C 1022.2 in /  34611.7 hPa Calm   6.4 mph /  10.3 km/h 94 % 0.0 in /  0 mm
11:12 12.8 °F /  -10.7 °C 11.7 °F /  -11.3 °C 1022.2 in /  34611.7 hPa SSW 3.2 mph /  5.1 km/h 6.4 mph /  10.3 km/h 93 % 0.0 in /  0 mm
11:17 12.9 °F /  -10.6 °C 11.6 °F /  -11.3 °C 1021.9 in /  34601.5 hPa Calm   8.0 mph /  12.9 km/h 92 % 0.0 in /  0 mm
11:22 13.1 °F /  -10.5 °C 11.8 °F /  -11.2 °C 1021.9 in /  34601.5 hPa Calm   8.0 mph /  12.9 km/h 92 % 0.0 in /  0 mm
11:32 13.3 °F /  -10.4 °C 11.9 °F /  -11.2 °C 1022.2 in /  34611.7 hPa SSE 3.2 mph /  5.1 km/h 8.0 mph /  12.9 km/h 91 % 0.0 in /  0 mm
11:37 13.5 °F /  -10.3 °C 11.9 °F /  -11.2 °C 1022.2 in /  34611.7 hPa SSW 3.2 mph /  5.1 km/h 8.0 mph /  12.9 km/h 90 % 0.0 in /  0 mm
11:42 13.7 °F /  -10.2 °C 11.9 °F /  -11.2 °C 1022.2 in /  34611.7 hPa SSW 4.8 mph /  7.7 km/h 8.0 mph /  12.9 km/h 89 % 0.0 in /  0 mm
11:47 13.7 °F /  -10.2 °C 11.7 °F /  -11.3 °C 1022.2 in /  34611.7 hPa SSW 1.6 mph /  2.6 km/h 9.7 mph /  15.6 km/h 88 % 0.0 in /  0 mm
11:52 13.8 °F /  -10.1 °C 11.8 °F /  -11.2 °C 1022.2 in /  34611.7 hPa SSE 3.2 mph /  5.1 km/h 9.7 mph /  15.6 km/h 88 % 0.0 in /  0 mm
11:57 14.0 °F /  -10 °C 12.0 °F /  -11.1 °C 1022.2 in /  34611.7 hPa South 1.6 mph /  2.6 km/h 11.3 mph /  18.2 km/h 88 % 0.0 in /  0 mm
12:02 14.2 °F /  -9.9 °C 12.1 °F /  -11.1 °C 1022.2 in /  34611.7 hPa South 3.2 mph /  5.1 km/h 11.3 mph /  18.2 km/h 87 % 0.0 in /  0 mm
12:07 14.3 °F /  -9.8 °C 12.2 °F /  -11 °C 1022.2 in /  34611.7 hPa South 6.4 mph /  10.3 km/h 11.3 mph /  18.2 km/h 87 % 0.0 in /  0 mm
12:12 14.4 °F /  -9.8 °C 12.3 °F /  -10.9 °C 1022.2 in /  34611.7 hPa SSW 4.8 mph /  7.7 km/h 11.3 mph /  18.2 km/h 87 % 0.0 in /  0 mm
12:17 14.6 °F /  -9.7 °C 12.3 °F /  -10.9 °C 1022.2 in /  34611.7 hPa SSW 3.2 mph /  5.1 km/h 11.3 mph /  18.2 km/h 86 % 0.0 in /  0 mm
12:27 14.8 °F /  -9.6 °C 12.5 °F /  -10.8 °C 1021.9 in /  34601.5 hPa SSW 6.4 mph /  10.3 km/h 11.3 mph /  18.2 km/h 86 % 0.0 in /  0 mm
12:32 14.9 °F /  -9.5 °C 12.4 °F /  -10.9 °C 1021.9 in /  34601.5 hPa SE 4.8 mph /  7.7 km/h 11.3 mph /  18.2 km/h 85 % 0.0 in /  0 mm
12:37 15.1 °F /  -9.4 °C 12.4 °F /  -10.9 °C 1021.9 in /  34601.5 hPa South 4.8 mph /  7.7 km/h 14.5 mph /  23.3 km/h 84 % 0.0 in /  0 mm
12:42 15.1 °F /  -9.4 °C 12.0 °F /  -11.1 °C 1021.9 in /  34601.5 hPa SSW 14.5 mph /  23.3 km/h 19.3 mph /  31.1 km/h 82 % 0.0 in /  0 mm
12:52 15.1 °F /  -9.4 °C 11.7 °F /  -11.3 °C 1021.9 in /  34601.5 hPa SW 14.5 mph /  23.3 km/h 19.3 mph /  31.1 km/h 80 % 0.0 in /  0 mm
12:57 15.2 °F /  -9.3 °C 11.8 °F /  -11.2 °C 1021.9 in /  34601.5 hPa SW 8.0 mph /  12.9 km/h 20.9 mph /  33.6 km/h 80 % 0.0 in /  0 mm
13:02 15.2 °F /  -9.3 °C 11.6 °F /  -11.3 °C 1021.9 in /  34601.5 hPa SSW 8.0 mph /  12.9 km/h 20.9 mph /  33.6 km/h 79 % 0.0 in /  0 mm
13:12 15.2 °F /  -9.3 °C 11.6 °F /  -11.3 °C 1021.9 in /  34601.5 hPa SSW 9.7 mph /  15.6 km/h 20.9 mph /  33.6 km/h 79 % 0.0 in /  0 mm
13:17 15.2 °F /  -9.3 °C 11.8 °F /  -11.2 °C 1021.9 in /  34601.5 hPa SSW 12.9 mph /  20.8 km/h 20.9 mph /  33.6 km/h 80 % 0.0 in /  0 mm
13:22 15.2 °F /  -9.3 °C 11.6 °F /  -11.3 °C 1021.9 in /  34601.5 hPa SW 14.5 mph /  23.3 km/h 20.9 mph /  33.6 km/h 79 % 0.0 in /  0 mm
13:27 15.2 °F /  -9.3 °C 11.8 °F /  -11.2 °C 1021.9 in /  34601.5 hPa SW 16.1 mph /  25.9 km/h 19.3 mph /  31.1 km/h 80 % 0.0 in /  0 mm
13:32 15.2 °F /  -9.3 °C 11.8 °F /  -11.2 °C 1021.6 in /  34591.4 hPa SW 6.4 mph /  10.3 km/h 20.9 mph /  33.6 km/h 80 % 0.0 in /  0 mm
13:42 15.3 °F /  -9.3 °C 12.1 °F /  -11.1 °C 1021.6 in /  34591.4 hPa SSW 12.9 mph /  20.8 km/h 20.9 mph /  33.6 km/h 81 % 0.0 in /  0 mm
13:47 15.4 °F /  -9.2 °C 12.0 °F /  -11.1 °C 1021.6 in /  34591.4 hPa SW 4.8 mph /  7.7 km/h 19.3 mph /  31.1 km/h 80 % 0.0 in /  0 mm
13:52 15.4 °F /  -9.2 °C 12.0 °F /  -11.1 °C 1021.6 in /  34591.4 hPa SSW 8.0 mph /  12.9 km/h 17.7 mph /  28.5 km/h 80 % 0.0 in /  0 mm
14:02 15.6 °F /  -9.1 °C 11.8 °F /  -11.2 °C 1021.6 in /  34591.4 hPa SW 14.5 mph /  23.3 km/h 19.3 mph /  31.1 km/h 78 % 0.0 in /  0 mm
14:12 15.6 °F /  -9.1 °C 11.2 °F /  -11.6 °C 1021.6 in /  34591.4 hPa SW 11.3 mph /  18.2 km/h 19.3 mph /  31.1 km/h 75 % 0.0 in /  0 mm
14:18 15.6 °F /  -9.1 °C 11.6 °F /  -11.3 °C 1021.6 in /  34591.4 hPa SW 11.3 mph /  18.2 km/h 19.3 mph /  31.1 km/h 77 % 0.0 in /  0 mm
14:27 15.6 °F /  -9.1 °C 11.6 °F /  -11.3 °C 1021.6 in /  34591.4 hPa SW 11.3 mph /  18.2 km/h 19.3 mph /  31.1 km/h 77 % 0.0 in /  0 mm
14:32 15.6 °F /  -9.1 °C 11.8 °F /  -11.2 °C 1021.6 in /  34591.4 hPa SW 14.5 mph /  23.3 km/h 19.3 mph /  31.1 km/h 78 % 0.0 in /  0 mm
14:42 15.4 °F /  -9.2 °C 11.8 °F /  -11.2 °C 1021.6 in /  34591.4 hPa SW 4.8 mph /  7.7 km/h 17.7 mph /  28.5 km/h 79 % 0.0 in /  0 mm
14:47 15.4 °F /  -9.2 °C 12.0 °F /  -11.1 °C 1021.6 in /  34591.4 hPa SSW 9.7 mph /  15.6 km/h 17.7 mph /  28.5 km/h 80 % 0.0 in /  0 mm
14:52 15.5 °F /  -9.2 °C 11.9 °F /  -11.2 °C 1021.6 in /  34591.4 hPa SW 11.3 mph /  18.2 km/h 17.7 mph /  28.5 km/h 79 % 0.0 in /  0 mm
14:57 15.4 °F /  -9.2 °C 11.2 °F /  -11.6 °C 1021.6 in /  34591.4 hPa South 12.9 mph /  20.8 km/h 16.1 mph /  25.9 km/h 76 % 0.0 in /  0 mm
15:02 15.4 °F /  -9.2 °C 11.6 °F /  -11.3 °C 1021.6 in /  34591.4 hPa SSW 3.2 mph /  5.1 km/h 19.3 mph /  31.1 km/h 78 % 0.0 in /  0 mm
15:07 15.4 °F /  -9.2 °C 11.4 °F /  -11.4 °C 1021.6 in /  34591.4 hPa SW 8.0 mph /  12.9 km/h 19.3 mph /  31.1 km/h 77 % 0.0 in /  0 mm
15:17 15.6 °F /  -9.1 °C 11.2 °F /  -11.6 °C 1021.6 in /  34591.4 hPa SSW 8.0 mph /  12.9 km/h 19.3 mph /  31.1 km/h 75 % 0.0 in /  0 mm
15:22 15.7 °F /  -9.1 °C 11.5 °F /  -11.4 °C 1021.2 in /  34577.8 hPa SW 9.7 mph /  15.6 km/h 19.3 mph /  31.1 km/h 76 % 0.0 in /  0 mm
15:27 15.7 °F /  -9.1 °C 11.7 °F /  -11.3 °C 1021.6 in /  34591.4 hPa SSW 9.7 mph /  15.6 km/h 19.3 mph /  31.1 km/h 77 % 0.0 in /  0 mm
15:32 15.7 °F /  -9.1 °C 11.5 °F /  -11.4 °C 1021.2 in /  34577.8 hPa SSW 9.7 mph /  15.6 km/h 20.9 mph /  33.6 km/h 76 % 0.0 in /  0 mm
15:37 15.7 °F /  -9.1 °C 11.5 °F /  -11.4 °C 1021.6 in /  34591.4 hPa SW 14.5 mph /  23.3 km/h 20.9 mph /  33.6 km/h 76 % 0.0 in /  0 mm
15:42 15.7 °F /  -9.1 °C 11.5 °F /  -11.4 °C 1021.2 in /  34577.8 hPa SW 16.1 mph /  25.9 km/h 20.9 mph /  33.6 km/h 76 % 0.0 in /  0 mm
15:47 15.6 °F /  -9.1 °C 11.2 °F /  -11.6 °C 1021.2 in /  34577.8 hPa SW 17.7 mph /  28.5 km/h 24.1 mph /  38.8 km/h 75 % 0.0 in /  0 mm
15:52 15.4 °F /  -9.2 °C 11.0 °F /  -11.7 °C 1021.2 in /  34577.8 hPa SW 9.7 mph /  15.6 km/h 24.1 mph /  38.8 km/h 75 % 0.0 in /  0 mm
15:57 15.3 °F /  -9.3 °C 11.5 °F /  -11.4 °C 1021.2 in /  34577.8 hPa WSW 19.3 mph /  31.1 km/h 24.1 mph /  38.8 km/h 78 % 0.0 in /  0 mm
16:02 15.3 °F /  -9.3 °C 11.5 °F /  -11.4 °C 1021.2 in /  34577.8 hPa SW 16.1 mph /  25.9 km/h 24.1 mph /  38.8 km/h 78 % 0.0 in /  0 mm
16:12 15.1 °F /  -9.4 °C 11.7 °F /  -11.3 °C 1021.6 in /  34591.4 hPa SW 12.9 mph /  20.8 km/h 22.5 mph /  36.2 km/h 80 % 0.0 in /  0 mm
16:17 15.0 °F /  -9.4 °C 11.6 °F /  -11.3 °C 1021.6 in /  34591.4 hPa SSW 11.3 mph /  18.2 km/h 22.5 mph /  36.2 km/h 80 % 0.0 in /  0 mm
16:22 14.9 °F /  -9.5 °C 11.5 °F /  -11.4 °C 1021.6 in /  34591.4 hPa South 11.3 mph /  18.2 km/h 22.5 mph /  36.2 km/h 80 % 0.0 in /  0 mm
16:27 14.8 °F /  -9.6 °C 11.4 °F /  -11.4 °C 1021.6 in /  34591.4 hPa SSE 6.4 mph /  10.3 km/h 22.5 mph /  36.2 km/h 80 % 0.0 in /  0 mm
16:37 14.7 °F /  -9.6 °C 12.2 °F /  -11 °C 1021.2 in /  34577.8 hPa SW 11.3 mph /  18.2 km/h 19.3 mph /  31.1 km/h 85 % 0.0 in /  0 mm
16:42 14.6 °F /  -9.7 °C 12.1 °F /  -11.1 °C 1021.2 in /  34577.8 hPa SSW 11.3 mph /  18.2 km/h 19.3 mph /  31.1 km/h 85 % 0.0 in /  0 mm
16:47 14.5 °F /  -9.7 °C 12.4 °F /  -10.9 °C 1021.6 in /  34591.4 hPa SW 11.3 mph /  18.2 km/h 19.3 mph /  31.1 km/h 87 % 0.0 in /  0 mm
16:52 14.3 °F /  -9.8 °C 12.3 °F /  -10.9 °C 1021.2 in /  34577.8 hPa SW 12.9 mph /  20.8 km/h 17.7 mph /  28.5 km/h 88 % 0.0 in /  0 mm
17:02 14.0 °F /  -10 °C 12.4 °F /  -10.9 °C 1021.2 in /  34577.8 hPa SSW 9.7 mph /  15.6 km/h 19.3 mph /  31.1 km/h 90 % 0.0 in /  0 mm
17:12 14.0 °F /  -10 °C 12.6 °F /  -10.8 °C 1021.2 in /  34577.8 hPa SSW 4.8 mph /  7.7 km/h 16.1 mph /  25.9 km/h 91 % 0.0 in /  0 mm
17:17 14.0 °F /  -10 °C 12.6 °F /  -10.8 °C 1021.2 in /  34577.8 hPa South 9.7 mph /  15.6 km/h 14.5 mph /  23.3 km/h 91 % 0.0 in /  0 mm
17:22 14.1 °F /  -9.9 °C 12.8 °F /  -10.7 °C 1020.9 in /  34567.7 hPa SW 12.9 mph /  20.8 km/h 14.5 mph /  23.3 km/h 92 % 0.0 in /  0 mm
17:32 14.0 °F /  -10 °C 12.7 °F /  -10.7 °C 1021.2 in /  34577.8 hPa SW 6.4 mph /  10.3 km/h 16.1 mph /  25.9 km/h 92 % 0.0 in /  0 mm
17:42 14.0 °F /  -10 °C 12.7 °F /  -10.7 °C 1021.2 in /  34577.8 hPa SSW 11.3 mph /  18.2 km/h 16.1 mph /  25.9 km/h 92 % 0.0 in /  0 mm
17:47 14.1 °F /  -9.9 °C 13.0 °F /  -10.6 °C 1020.9 in /  34567.7 hPa SW 8.0 mph /  12.9 km/h 16.1 mph /  25.9 km/h 93 % 0.0 in /  0 mm
17:52 14.1 °F /  -9.9 °C 13.0 °F /  -10.6 °C 1020.9 in /  34567.7 hPa SW 6.4 mph /  10.3 km/h 16.1 mph /  25.9 km/h 93 % 0.0 in /  0 mm
17:57 14.2 °F /  -9.9 °C 13.1 °F /  -10.5 °C 1020.9 in /  34567.7 hPa SW 9.7 mph /  15.6 km/h 14.5 mph /  23.3 km/h 93 % 0.0 in /  0 mm
18:02 14.1 °F /  -9.9 °C 13.0 °F /  -10.6 °C 1020.9 in /  34567.7 hPa SW 11.3 mph /  18.2 km/h 12.9 mph /  20.8 km/h 93 % 0.0 in /  0 mm
18:07 14.1 °F /  -9.9 °C 13.0 °F /  -10.6 °C 1020.9 in /  34567.7 hPa South 4.8 mph /  7.7 km/h 16.1 mph /  25.9 km/h 93 % 0.0 in /  0 mm
18:12 14.1 °F /  -9.9 °C 13.1 °F /  -10.5 °C 1020.9 in /  34567.7 hPa SSW 6.4 mph /  10.3 km/h 16.1 mph /  25.9 km/h 94 % 0.0 in /  0 mm
18:17 14.1 °F /  -9.9 °C 13.1 °F /  -10.5 °C 1020.9 in /  34567.7 hPa SW 12.9 mph /  20.8 km/h 16.1 mph /  25.9 km/h 94 % 0.0 in /  0 mm
18:22 14.0 °F /  -10 °C 13.0 °F /  -10.6 °C 1020.9 in /  34567.7 hPa South 12.9 mph /  20.8 km/h 16.1 mph /  25.9 km/h 94 % 0.0 in /  0 mm
18:27 13.9 °F /  -10.1 °C 12.9 °F /  -10.6 °C 1020.9 in /  34567.7 hPa SW 9.7 mph /  15.6 km/h 20.9 mph /  33.6 km/h 94 % 0.0 in /  0 mm
18:32 13.9 °F /  -10.1 °C 12.9 °F /  -10.6 °C 1020.9 in /  34567.7 hPa SSW 8.0 mph /  12.9 km/h 20.9 mph /  33.6 km/h 94 % 0.0 in /  0 mm
18:37 13.9 °F /  -10.1 °C 13.1 °F /  -10.5 °C 1020.9 in /  34567.7 hPa SSW 11.3 mph /  18.2 km/h 20.9 mph /  33.6 km/h 95 % 0.0 in /  0 mm
18:42 13.9 °F /  -10.1 °C 13.1 °F /  -10.5 °C 1020.9 in /  34567.7 hPa South 8.0 mph /  12.9 km/h 20.9 mph /  33.6 km/h 95 % 0.0 in /  0 mm
18:47 13.8 °F /  -10.1 °C 13.0 °F /  -10.6 °C 1020.9 in /  34567.7 hPa SSW 9.7 mph /  15.6 km/h 20.9 mph /  33.6 km/h 95 % 0.0 in /  0 mm
18:52 13.8 °F /  -10.1 °C 13.0 °F /  -10.6 °C 1020.9 in /  34567.7 hPa South 4.8 mph /  7.7 km/h 16.1 mph /  25.9 km/h 95 % 0.0 in /  0 mm
19:02 13.8 °F /  -10.1 °C 13.0 °F /  -10.6 °C 1021.2 in /  34577.8 hPa SW 8.0 mph /  12.9 km/h 16.1 mph /  25.9 km/h 95 % 0.0 in /  0 mm
19:12 13.8 °F /  -10.1 °C 13.2 °F /  -10.4 °C 1021.2 in /  34577.8 hPa SW 9.7 mph /  15.6 km/h 17.7 mph /  28.5 km/h 96 % 0.0 in /  0 mm
19:17 13.8 °F /  -10.1 °C 13.2 °F /  -10.4 °C 1021.2 in /  34577.8 hPa SSW 6.4 mph /  10.3 km/h 17.7 mph /  28.5 km/h 96 % 0.0 in /  0 mm
19:22 13.8 °F /  -10.1 °C 13.2 °F /  -10.4 °C 1021.2 in /  34577.8 hPa SW 11.3 mph /  18.2 km/h 17.7 mph /  28.5 km/h 96 % 0.0 in /  0 mm
19:27 13.8 °F /  -10.1 °C 13.2 °F /  -10.4 °C 1020.9 in /  34567.7 hPa SW 6.4 mph /  10.3 km/h 14.5 mph /  23.3 km/h 96 % 0.0 in /  0 mm
19:32 13.8 °F /  -10.1 °C 13.2 °F /  -10.4 °C 1020.9 in /  34567.7 hPa SW 11.3 mph /  18.2 km/h 14.5 mph /  23.3 km/h 96 % 0.0 in /  0 mm
19:37 13.8 °F /  -10.1 °C 13.2 °F /  -10.4 °C 1021.2 in /  34577.8 hPa SSW 8.0 mph /  12.9 km/h 19.3 mph /  31.1 km/h 96 % 0.0 in /  0 mm
19:42 13.7 °F /  -10.2 °C 13.1 °F /  -10.5 °C 1020.9 in /  34567.7 hPa SW 14.5 mph /  23.3 km/h 19.3 mph /  31.1 km/h 96 % 0.0 in /  0 mm
19:47 13.7 °F /  -10.2 °C 13.1 °F /  -10.5 °C 1021.2 in /  34577.8 hPa SSW 6.4 mph /  10.3 km/h 19.3 mph /  31.1 km/h 96 % 0.0 in /  0 mm
19:52 13.7 °F /  -10.2 °C 13.1 °F /  -10.5 °C 1021.2 in /  34577.8 hPa SW 4.8 mph /  7.7 km/h 17.7 mph /  28.5 km/h 96 % 0.0 in /  0 mm
19:57 13.7 °F /  -10.2 °C 13.1 °F /  -10.5 °C 1021.2 in /  34577.8 hPa SSW 8.0 mph /  12.9 km/h 17.7 mph /  28.5 km/h 96 % 0.0 in /  0 mm
20:02 13.7 °F /  -10.2 °C 13.1 °F /  -10.5 °C 1021.2 in /  34577.8 hPa South 9.7 mph /  15.6 km/h 14.5 mph /  23.3 km/h 96 % 0.0 in /  0 mm
20:07 13.7 °F /  -10.2 °C 13.1 °F /  -10.5 °C 1021.2 in /  34577.8 hPa SSW 6.4 mph /  10.3 km/h 12.9 mph /  20.8 km/h 96 % 0.0 in /  0 mm
20:12 13.7 °F /  -10.2 °C 13.1 °F /  -10.5 °C 1021.2 in /  34577.8 hPa SSW 11.3 mph /  18.2 km/h 14.5 mph /  23.3 km/h 96 % 0.0 in /  0 mm
20:17 13.7 °F /  -10.2 °C 13.1 °F /  -10.5 °C 1021.2 in /  34577.8 hPa SW 6.4 mph /  10.3 km/h 14.5 mph /  23.3 km/h 96 % 0.0 in /  0 mm
20:22 13.7 °F /  -10.2 °C 13.1 °F /  -10.5 °C 1021.2 in /  34577.8 hPa SSW 9.7 mph /  15.6 km/h 14.5 mph /  23.3 km/h 96 % 0.0 in /  0 mm
20:27 13.7 °F /  -10.2 °C 13.1 °F /  -10.5 °C 1021.2 in /  34577.8 hPa SSW 9.7 mph /  15.6 km/h 12.9 mph /  20.8 km/h 96 % 0.0 in /  0 mm
20:32 13.7 °F /  -10.2 °C 13.1 °F /  -10.5 °C 1021.2 in /  34577.8 hPa SSW 6.4 mph /  10.3 km/h 12.9 mph /  20.8 km/h 96 % 0.0 in /  0 mm
20:37 13.7 °F /  -10.2 °C 13.1 °F /  -10.5 °C 1021.2 in /  34577.8 hPa SSW 8.0 mph /  12.9 km/h 12.9 mph /  20.8 km/h 96 % 0.0 in /  0 mm
20:42 13.7 °F /  -10.2 °C 13.1 °F /  -10.5 °C 1021.2 in /  34577.8 hPa SSW 3.2 mph /  5.1 km/h 12.9 mph /  20.8 km/h 96 % 0.0 in /  0 mm
20:52 13.8 °F /  -10.1 °C 13.2 °F /  -10.4 °C 1021.2 in /  34577.8 hPa SW 9.7 mph /  15.6 km/h 14.5 mph /  23.3 km/h 96 % 0.0 in /  0 mm
20:57 13.8 °F /  -10.1 °C 13.2 °F /  -10.4 °C 1021.6 in /  34591.4 hPa SW 3.2 mph /  5.1 km/h 12.9 mph /  20.8 km/h 96 % 0.0 in /  0 mm
21:02 13.8 °F /  -10.1 °C 13.2 °F /  -10.4 °C 1021.6 in /  34591.4 hPa SSW 4.8 mph /  7.7 km/h 12.9 mph /  20.8 km/h 96 % 0.0 in /  0 mm
21:07 13.8 °F /  -10.1 °C 13.2 °F /  -10.4 °C 1021.6 in /  34591.4 hPa SSW 4.8 mph /  7.7 km/h 12.9 mph /  20.8 km/h 96 % 0.0 in /  0 mm
21:12 13.8 °F /  -10.1 °C 13.2 °F /  -10.4 °C 1021.6 in /  34591.4 hPa SW 3.2 mph /  5.1 km/h 11.3 mph /  18.2 km/h 96 % 0.0 in /  0 mm
21:17 13.8 °F /  -10.1 °C 13.2 °F /  -10.4 °C 1021.6 in /  34591.4 hPa SSW 3.2 mph /  5.1 km/h 11.3 mph /  18.2 km/h 96 % 0.0 in /  0 mm
21:22 13.8 °F /  -10.1 °C 13.2 °F /  -10.4 °C 1021.6 in /  34591.4 hPa SW 4.8 mph /  7.7 km/h 11.3 mph /  18.2 km/h 96 % 0.0 in /  0 mm
21:27 13.8 °F /  -10.1 °C 13.2 °F /  -10.4 °C 1021.6 in /  34591.4 hPa SW 6.4 mph /  10.3 km/h 12.9 mph /  20.8 km/h 96 % 0.0 in /  0 mm
21:32 13.9 °F /  -10.1 °C 13.3 °F /  -10.4 °C 1021.6 in /  34591.4 hPa SW 4.8 mph /  7.7 km/h 16.1 mph /  25.9 km/h 96 % 0.0 in /  0 mm
21:37 13.9 °F /  -10.1 °C 13.3 °F /  -10.4 °C 1021.6 in /  34591.4 hPa SW 3.2 mph /  5.1 km/h 16.1 mph /  25.9 km/h 96 % 0.0 in /  0 mm
21:42 13.9 °F /  -10.1 °C 13.3 °F /  -10.4 °C 1021.6 in /  34591.4 hPa SW 4.8 mph /  7.7 km/h 11.3 mph /  18.2 km/h 96 % 0.0 in /  0 mm
21:47 13.9 °F /  -10.1 °C 13.3 °F /  -10.4 °C 1021.6 in /  34591.4 hPa SSW 4.8 mph /  7.7 km/h 11.3 mph /  18.2 km/h 96 % 0.0 in /  0 mm
21:52 13.9 °F /  -10.1 °C 13.1 °F /  -10.5 °C 1021.6 in /  34591.4 hPa SW 8.0 mph /  12.9 km/h 11.3 mph /  18.2 km/h 95 % 0.0 in /  0 mm
21:57 13.9 °F /  -10.1 °C 13.3 °F /  -10.4 °C 1021.6 in /  34591.4 hPa SW 8.0 mph /  12.9 km/h 16.1 mph /  25.9 km/h 96 % 0.0 in /  0 mm
22:02 13.9 °F /  -10.1 °C 13.3 °F /  -10.4 °C 1021.6 in /  34591.4 hPa SW 8.0 mph /  12.9 km/h 16.1 mph /  25.9 km/h 96 % 0.0 in /  0 mm
22:07 13.9 °F /  -10.1 °C 13.3 °F /  -10.4 °C 1021.6 in /  34591.4 hPa SSW 9.7 mph /  15.6 km/h 16.1 mph /  25.9 km/h 96 % 0.0 in /  0 mm
22:12 13.9 °F /  -10.1 °C 13.3 °F /  -10.4 °C 1021.6 in /  34591.4 hPa SW 11.3 mph /  18.2 km/h 12.9 mph /  20.8 km/h 96 % 0.0 in /  0 mm
22:17 13.9 °F /  -10.1 °C 13.3 °F /  -10.4 °C 1021.6 in /  34591.4 hPa SSW 6.4 mph /  10.3 km/h 12.9 mph /  20.8 km/h 96 % 0.0 in /  0 mm
22:22 13.9 °F /  -10.1 °C 13.3 °F /  -10.4 °C 1021.6 in /  34591.4 hPa SW 6.4 mph /  10.3 km/h 14.5 mph /  23.3 km/h 96 % 0.0 in /  0 mm
22:32 13.9 °F /  -10.1 °C 13.3 °F /  -10.4 °C 1021.6 in /  34591.4 hPa SSW 8.0 mph /  12.9 km/h 14.5 mph /  23.3 km/h 96 % 0.0 in /  0 mm
22:42 13.9 °F /  -10.1 °C 13.3 °F /  -10.4 °C 1021.6 in /  34591.4 hPa SSW 3.2 mph /  5.1 km/h 14.5 mph /  23.3 km/h 96 % 0.3 in /  7.62 mm
22:47 13.8 °F /  -10.1 °C 13.2 °F /  -10.4 °C 1021.2 in /  34577.8 hPa SW 8.0 mph /  12.9 km/h 14.5 mph /  23.3 km/h 96 % 0.3 in /  7.62 mm
22:52 13.8 °F /  -10.1 °C 13.2 °F /  -10.4 °C 1021.2 in /  34577.8 hPa South 4.8 mph /  7.7 km/h 12.9 mph /  20.8 km/h 96 % 0.3 in /  7.62 mm
22:57 13.8 °F /  -10.1 °C 13.2 °F /  -10.4 °C 1021.2 in /  34577.8 hPa SSW 1.6 mph /  2.6 km/h 12.9 mph /  20.8 km/h 96 % 0.5 in /  12.7 mm
23:02 13.8 °F /  -10.1 °C 13.2 °F /  -10.4 °C 1021.2 in /  34577.8 hPa SSW 4.8 mph /  7.7 km/h 11.3 mph /  18.2 km/h 96 % 0.5 in /  12.7 mm
23:12 13.8 °F /  -10.1 °C 13.2 °F /  -10.4 °C 1021.6 in /  34591.4 hPa SW 6.4 mph /  10.3 km/h 11.3 mph /  18.2 km/h 96 % 0.5 in /  12.7 mm
23:17 13.8 °F /  -10.1 °C 13.2 °F /  -10.4 °C 1021.2 in /  34577.8 hPa SSW 9.7 mph /  15.6 km/h 11.3 mph /  18.2 km/h 96 % 0.5 in /  12.7 mm
23:22 13.8 °F /  -10.1 °C 13.2 °F /  -10.4 °C 1021.6 in /  34591.4 hPa South 4.8 mph /  7.7 km/h 11.3 mph /  18.2 km/h 96 % 0.5 in /  12.7 mm
23:27 13.8 °F /  -10.1 °C 13.2 °F /  -10.4 °C 1021.2 in /  34577.8 hPa SSW 6.4 mph /  10.3 km/h 12.9 mph /  20.8 km/h 96 % 0.5 in /  12.7 mm
23:32 13.8 °F /  -10.1 °C 13.2 °F /  -10.4 °C 1021.2 in /  34577.8 hPa SSW 6.4 mph /  10.3 km/h 17.7 mph /  28.5 km/h 96 % 0.5 in /  12.7 mm
23:37 13.8 °F /  -10.1 °C 13.3 °F /  -10.4 °C 1021.2 in /  34577.8 hPa SW 6.4 mph /  10.3 km/h 17.7 mph /  28.5 km/h 97 % 0.3 in /  7.62 mm
23:42 13.8 °F /  -10.1 °C 13.3 °F /  -10.4 °C 1021.2 in /  34577.8 hPa SW 6.4 mph /  10.3 km/h 17.7 mph /  28.5 km/h 97 % 0.3 in /  7.62 mm
23:47 13.8 °F /  -10.1 °C 13.3 °F /  -10.4 °C 1021.2 in /  34577.8 hPa SW 9.7 mph /  15.6 km/h 12.9 mph /  20.8 km/h 97 % 0.3 in /  7.62 mm
23:52 13.8 °F /  -10.1 °C 13.3 °F /  -10.4 °C 1020.9 in /  34567.7 hPa SW 6.4 mph /  10.3 km/h 16.1 mph /  25.9 km/h 97 % 0.3 in /  7.62 mm
23:57 13.8 °F /  -10.1 °C 13.3 °F /  -10.4 °C 1020.9 in /  34567.7 hPa SSW 11.3 mph /  18.2 km/h 17.7 mph /  28.5 km/h 97 % 0.0 in /  0 mm
Meteo18
Compliments of Weather Underground - 4 mb

Script developed by  Jim McMurry - jmcmurry@mwt.net Adapted for the template by  Wim van der Kuil - Leuven-Template.eu

You find our weather info also at:

European Weather Network

Weather Underground

Equipment we use:

Weather-station
Davis Vue

Weather-program
Meteobridge

Weather-server
Raspberry PI 2 B+

Provider
1 and 1

Davis Vue

Meteobridge

Raspberry PI 2 B+

1 and 1